createdAt,value
2023-03-14T00:00:04.291Z,512.00
2023-03-14T00:00:34.404Z,511.00
2023-03-14T00:01:04.519Z,510.00
2023-03-14T00:01:34.653Z,509.00
2023-03-14T00:02:04.750Z,509.00
2023-03-14T00:02:34.944Z,510.00
2023-03-14T00:03:04.953Z,510.00
2023-03-14T00:03:35.027Z,508.00
2023-03-14T00:04:04.998Z,505.00
2023-03-14T00:04:35.140Z,505.00
2023-03-14T00:05:05.232Z,506.00
2023-03-14T00:05:35.342Z,507.00
2023-03-14T00:06:05.341Z,506.00
2023-03-14T00:06:35.479Z,505.00
2023-03-14T00:07:05.463Z,506.00
2023-03-14T00:07:35.580Z,505.00
2023-03-14T00:08:05.570Z,505.00
2023-03-14T00:08:35.680Z,507.00
2023-03-14T00:09:05.685Z,506.00
2023-03-14T00:09:35.792Z,506.00
2023-03-14T00:10:05.916Z,507.00
2023-03-14T00:10:36.016Z,507.00
2023-03-14T00:11:06.129Z,508.00
2023-03-14T00:11:36.271Z,507.00
2023-03-14T00:12:06.252Z,508.00
2023-03-14T00:12:36.332Z,507.00
2023-03-14T00:13:06.437Z,508.00
2023-03-14T00:13:36.547Z,509.00
2023-03-14T00:14:06.656Z,511.00
2023-03-14T00:14:36.769Z,511.00
2023-03-14T00:15:06.879Z,507.00
2023-03-14T00:15:37.039Z,507.00
2023-03-14T00:16:07.125Z,507.00
2023-03-14T00:16:37.314Z,505.00
2023-03-14T00:17:07.170Z,504.00
2023-03-14T00:17:37.295Z,505.00
2023-03-14T00:18:07.400Z,506.00
2023-03-14T00:18:37.504Z,508.00
2023-03-14T00:19:07.618Z,507.00
2023-03-14T00:19:37.759Z,506.00
2023-03-14T00:20:07.845Z,507.00
2023-03-14T00:20:37.955Z,509.00
2023-03-14T00:21:08.064Z,509.00
2023-03-14T00:21:38.206Z,510.00
2023-03-14T00:22:08.188Z,509.00
2023-03-14T00:22:38.297Z,510.00
2023-03-14T00:23:08.427Z,510.00
2023-03-14T00:23:38.417Z,511.00
2023-03-14T00:24:08.509Z,511.00
2023-03-14T00:24:38.632Z,510.00
2023-03-14T00:25:08.734Z,511.00
2023-03-14T00:25:38.848Z,512.00
2023-03-14T00:26:08.973Z,513.00
2023-03-14T00:26:39.070Z,513.00
2023-03-14T00:27:09.187Z,511.00
2023-03-14T00:27:39.295Z,511.00
2023-03-14T00:28:09.451Z,509.00
2023-03-14T00:28:39.444Z,506.00
2023-03-14T00:29:09.551Z,505.00
2023-03-14T00:29:39.665Z,503.00
2023-03-14T00:30:09.777Z,501.00
2023-03-14T00:30:39.886Z,499.00
2023-03-14T00:31:10.043Z,499.00
2023-03-14T00:31:40.083Z,496.00
2023-03-14T00:32:10.120Z,496.00
2023-03-14T00:32:40.276Z,499.00
2023-03-14T00:33:10.246Z,501.00
2023-03-14T00:33:40.366Z,499.00
2023-03-14T00:34:10.481Z,500.00
2023-03-14T00:34:40.578Z,499.00
2023-03-14T00:35:10.719Z,501.00
2023-03-14T00:35:40.844Z,501.00
2023-03-14T00:36:10.925Z,502.00
2023-03-14T00:36:40.825Z,501.00
2023-03-14T00:37:10.891Z,503.00
2023-03-14T00:37:40.969Z,505.00
2023-03-14T00:38:11.051Z,505.00
2023-03-14T00:38:41.132Z,506.00
2023-03-14T00:39:11.201Z,505.00
2023-03-14T00:39:41.268Z,505.00
2023-03-14T00:40:11.344Z,505.00
2023-03-14T00:40:41.421Z,505.00
2023-03-14T00:41:11.498Z,505.00
2023-03-14T00:41:41.566Z,506.00
2023-03-14T00:42:11.640Z,505.00
2023-03-14T00:42:41.716Z,503.00
2023-03-14T00:43:11.787Z,504.00
2023-03-14T00:43:41.874Z,504.00
2023-03-14T00:44:11.936Z,504.00
2023-03-14T00:44:42.008Z,505.00
2023-03-14T00:45:12.079Z,506.00
2023-03-14T00:45:42.148Z,505.00
2023-03-14T00:46:12.258Z,505.00
2023-03-14T00:46:42.367Z,506.00
2023-03-14T00:47:12.353Z,504.00
2023-03-14T00:47:42.464Z,506.00
2023-03-14T00:48:12.579Z,508.00
2023-03-14T00:48:42.685Z,508.00
2023-03-14T00:49:12.800Z,507.00
2023-03-14T00:49:42.903Z,507.00
2023-03-14T00:50:13.090Z,506.00
2023-03-14T00:50:43.070Z,503.00
2023-03-14T00:51:13.174Z,503.00
2023-03-14T00:51:43.169Z,503.00
2023-03-14T00:52:13.290Z,502.00
2023-03-14T00:52:43.394Z,502.00
2023-03-14T00:53:13.503Z,502.00
2023-03-14T00:53:43.617Z,503.00
2023-03-14T00:54:13.729Z,506.00
2023-03-14T00:54:43.843Z,507.00
2023-03-14T00:55:13.956Z,508.00
2023-03-14T00:55:44.076Z,508.00
2023-03-14T00:56:14.179Z,507.00
2023-03-14T00:56:44.291Z,507.00
2023-03-14T00:57:14.406Z,507.00
2023-03-14T00:57:44.512Z,506.00
2023-03-14T00:58:14.633Z,507.00
2023-03-14T00:58:44.747Z,505.00
2023-03-14T00:59:14.848Z,505.00
2023-03-14T00:59:44.964Z,505.00
2023-03-14T01:00:15.075Z,504.00
2023-03-14T01:00:45.195Z,505.00
2023-03-14T01:01:15.297Z,504.00
2023-03-14T01:01:45.452Z,503.00
2023-03-14T01:02:15.490Z,501.00
2023-03-14T01:02:45.504Z,503.00
2023-03-14T01:03:15.742Z,504.00
2023-03-14T01:03:45.633Z,505.00
2023-03-14T01:04:15.734Z,505.00
2023-03-14T01:04:45.842Z,505.00
2023-03-14T01:05:15.960Z,506.00
2023-03-14T01:05:46.096Z,504.00
2023-03-14T01:06:16.184Z,504.00
2023-03-14T01:06:46.295Z,505.00
2023-03-14T01:07:16.423Z,505.00
2023-03-14T01:07:46.405Z,505.00
2023-03-14T01:08:16.517Z,504.00
2023-03-14T01:08:46.637Z,503.00
2023-03-14T01:09:16.753Z,504.00
2023-03-14T01:09:46.861Z,503.00
2023-03-14T01:10:16.978Z,505.00
2023-03-14T01:10:47.091Z,505.00
2023-03-14T01:11:17.089Z,503.00
2023-03-14T01:11:47.205Z,503.00
2023-03-14T01:12:17.320Z,504.00
2023-03-14T01:12:47.426Z,505.00
2023-03-14T01:13:17.586Z,504.00
2023-03-14T01:13:47.552Z,503.00
2023-03-14T01:14:17.668Z,502.00
2023-03-14T01:14:47.778Z,501.00
2023-03-14T01:15:17.889Z,502.00
2023-03-14T01:15:48.055Z,503.00
2023-03-14T01:16:18.067Z,502.00
2023-03-14T01:16:48.071Z,500.00
2023-03-14T01:17:18.166Z,499.00
2023-03-14T01:17:48.147Z,500.00
2023-03-14T01:18:18.260Z,500.00
2023-03-14T01:18:48.380Z,500.00
2023-03-14T01:19:18.490Z,500.00
2023-03-14T01:19:48.612Z,501.00
2023-03-14T01:20:18.722Z,502.00
2023-03-14T01:20:48.889Z,503.00
2023-03-14T01:21:18.842Z,504.00
2023-03-14T01:21:48.955Z,503.00
2023-03-14T01:22:19.069Z,502.00
2023-03-14T01:22:49.185Z,502.00
2023-03-14T01:23:19.297Z,501.00
2023-03-14T01:23:49.407Z,502.00
2023-03-14T01:24:19.522Z,501.00
2023-03-14T01:24:49.636Z,501.00
2023-03-14T01:25:19.758Z,499.00
2023-03-14T01:25:49.860Z,500.00
2023-03-14T01:26:20.065Z,498.00
2023-03-14T01:26:50.035Z,498.00
2023-03-14T01:27:20.139Z,500.00
2023-03-14T01:27:50.259Z,502.00
2023-03-14T01:28:20.371Z,500.00
2023-03-14T01:28:50.479Z,499.00
2023-03-14T01:29:20.597Z,500.00
2023-03-14T01:29:50.712Z,500.00
2023-03-14T01:30:20.828Z,501.00
2023-03-14T01:30:50.928Z,501.00
2023-03-14T01:31:21.088Z,499.00
2023-03-14T01:31:51.135Z,500.00
2023-03-14T01:32:21.177Z,499.00
2023-03-14T01:32:51.222Z,499.00
2023-03-14T01:33:21.196Z,496.00
2023-03-14T01:33:51.320Z,500.00
2023-03-14T01:34:21.436Z,500.00
2023-03-14T01:34:51.534Z,502.00
2023-03-14T01:35:21.644Z,504.00
2023-03-14T01:35:51.827Z,504.00
2023-03-14T01:36:21.796Z,504.00
2023-03-14T01:36:51.884Z,504.00
2023-03-14T01:37:21.978Z,504.00
2023-03-14T01:37:52.055Z,504.00
2023-03-14T01:38:22.122Z,503.00
2023-03-14T01:38:52.197Z,502.00
2023-03-14T01:39:22.265Z,502.00
2023-03-14T01:39:52.339Z,501.00
2023-03-14T01:40:22.418Z,500.00
2023-03-14T01:40:52.508Z,499.00
2023-03-14T01:41:22.585Z,499.00
2023-03-14T01:41:52.672Z,496.00
2023-03-14T01:42:22.756Z,497.00
2023-03-14T01:42:52.812Z,500.00
2023-03-14T01:43:22.887Z,501.00
2023-03-14T01:43:52.976Z,500.00
2023-03-14T01:44:23.035Z,500.00
2023-03-14T01:44:53.111Z,499.00
2023-03-14T01:45:23.217Z,500.00
2023-03-14T01:45:53.323Z,499.00
2023-03-14T01:46:23.430Z,497.00
2023-03-14T01:46:53.502Z,498.00
2023-03-14T01:47:23.521Z,499.00
2023-03-14T01:47:53.488Z,501.00
2023-03-14T01:48:23.607Z,500.00
2023-03-14T01:48:53.615Z,500.00
2023-03-14T01:49:23.708Z,499.00
2023-03-14T01:49:53.823Z,499.00
2023-03-14T01:50:23.944Z,498.00
2023-03-14T01:50:54.047Z,499.00
2023-03-14T01:51:24.186Z,498.00
2023-03-14T01:51:54.276Z,497.00
2023-03-14T01:52:24.269Z,496.00
2023-03-14T01:52:54.390Z,497.00
2023-03-14T01:53:24.499Z,500.00
2023-03-14T01:53:54.612Z,500.00
2023-03-14T01:54:24.724Z,497.00
2023-03-14T01:54:54.839Z,497.00
2023-03-14T01:55:24.850Z,492.00
2023-03-14T01:55:54.939Z,493.00
2023-03-14T01:56:25.053Z,496.00
2023-03-14T01:56:55.164Z,496.00
2023-03-14T01:57:25.289Z,497.00
2023-03-14T01:57:55.280Z,495.00
2023-03-14T01:58:25.391Z,497.00
2023-03-14T01:58:55.506Z,495.00
2023-03-14T01:59:25.615Z,491.00
2023-03-14T01:59:55.728Z,490.00
2023-03-14T02:00:25.848Z,492.00
2023-03-14T02:00:56.005Z,491.00
2023-03-14T02:01:26.001Z,492.00
2023-03-14T02:01:56.000Z,490.00
2023-03-14T02:02:26.192Z,490.00
2023-03-14T02:02:56.165Z,489.00
2023-03-14T02:03:26.280Z,489.00
2023-03-14T02:03:56.382Z,488.00
2023-03-14T02:04:26.499Z,490.00
2023-03-14T02:04:56.613Z,491.00
2023-03-14T02:05:26.657Z,491.00
2023-03-14T02:05:56.765Z,493.00
2023-03-14T02:06:26.904Z,495.00
2023-03-14T02:06:56.988Z,494.00
2023-03-14T02:07:27.139Z,491.00
2023-03-14T02:07:57.127Z,493.00
2023-03-14T02:08:27.237Z,494.00
2023-03-14T02:08:57.367Z,494.00
2023-03-14T02:09:27.462Z,495.00
2023-03-14T02:09:57.574Z,495.00
2023-03-14T02:10:27.685Z,495.00
2023-03-14T02:10:57.799Z,496.00
2023-03-14T02:11:27.903Z,498.00
2023-03-14T02:11:58.014Z,500.00
2023-03-14T02:12:28.148Z,498.00
2023-03-14T02:12:58.131Z,500.00
2023-03-14T02:13:28.240Z,497.00
2023-03-14T02:13:58.353Z,495.00
2023-03-14T02:14:28.468Z,495.00
2023-03-14T02:14:58.571Z,495.00
2023-03-14T02:15:28.694Z,496.00
2023-03-14T02:15:58.794Z,495.00
2023-03-14T02:16:28.951Z,493.00
2023-03-14T02:16:58.944Z,490.00
2023-03-14T02:17:29.091Z,488.00
2023-03-14T02:17:59.047Z,488.00
2023-03-14T02:18:29.172Z,488.00
2023-03-14T02:18:59.277Z,487.00
2023-03-14T02:19:29.392Z,488.00
2023-03-14T02:19:59.502Z,488.00
2023-03-14T02:20:29.617Z,488.00
2023-03-14T02:20:59.606Z,489.00
2023-03-14T02:21:29.714Z,490.00
2023-03-14T02:21:59.863Z,489.00
2023-03-14T02:22:29.944Z,492.00
2023-03-14T02:23:00.059Z,492.00
2023-03-14T02:23:30.170Z,492.00
2023-03-14T02:24:00.284Z,490.00
2023-03-14T02:24:30.395Z,490.00
2023-03-14T02:25:00.506Z,489.00
2023-03-14T02:25:30.623Z,488.00
2023-03-14T02:26:00.727Z,489.00
2023-03-14T02:26:30.837Z,489.00
2023-03-14T02:27:00.957Z,488.00
2023-03-14T02:27:31.084Z,488.00
2023-03-14T02:28:01.077Z,487.00
2023-03-14T02:28:31.109Z,489.00
2023-03-14T02:29:01.220Z,490.00
2023-03-14T02:29:31.331Z,490.00
2023-03-14T02:30:01.439Z,490.00
2023-03-14T02:30:31.556Z,491.00
2023-03-14T02:31:01.667Z,491.00
2023-03-14T02:31:31.845Z,491.00
2023-03-14T02:32:01.890Z,492.00
2023-03-14T02:32:31.920Z,494.00
2023-03-14T02:33:01.982Z,492.00
2023-03-14T02:33:31.977Z,493.00
2023-03-14T02:34:02.090Z,494.00
2023-03-14T02:34:32.206Z,493.00
2023-03-14T02:35:02.317Z,490.00
2023-03-14T02:35:32.467Z,490.00
2023-03-14T02:36:02.543Z,490.00
2023-03-14T02:36:32.570Z,489.00
2023-03-14T02:37:02.667Z,491.00
2023-03-14T02:37:32.726Z,491.00
2023-03-14T02:38:02.810Z,489.00
2023-03-14T02:38:32.880Z,490.00
2023-03-14T02:39:02.946Z,489.00
2023-03-14T02:39:33.020Z,489.00
2023-03-14T02:40:03.106Z,490.00
2023-03-14T02:40:33.168Z,490.00
2023-03-14T02:41:03.243Z,490.00
2023-03-14T02:41:33.308Z,489.00
2023-03-14T02:42:03.380Z,488.00
2023-03-14T02:42:33.450Z,488.00
2023-03-14T02:43:03.519Z,487.00
2023-03-14T02:43:33.609Z,484.00
2023-03-14T02:44:03.684Z,483.00
2023-03-14T02:44:33.764Z,480.00
2023-03-14T02:45:03.850Z,480.00
2023-03-14T02:45:33.978Z,481.00
2023-03-14T02:46:04.092Z,480.00
2023-03-14T02:46:33.920Z,481.00
2023-03-14T02:47:04.032Z,479.00
2023-03-14T02:47:34.164Z,480.00
2023-03-14T02:48:04.155Z,479.00
2023-03-14T02:48:34.256Z,480.00
2023-03-14T02:49:04.372Z,481.00
2023-03-14T02:49:34.480Z,483.00
2023-03-14T02:50:04.595Z,486.00
2023-03-14T02:50:34.716Z,486.00
2023-03-14T02:51:04.827Z,487.00
2023-03-14T02:51:34.935Z,486.00
2023-03-14T02:52:05.061Z,484.00
2023-03-14T02:52:35.200Z,484.00
2023-03-14T02:53:05.224Z,485.00
2023-03-14T02:53:35.344Z,485.00
2023-03-14T02:54:05.323Z,483.00
2023-03-14T02:54:35.431Z,484.00
2023-03-14T02:55:05.550Z,484.00
2023-03-14T02:55:35.661Z,483.00
2023-03-14T02:56:05.784Z,482.00
2023-03-14T02:56:35.883Z,483.00
2023-03-14T02:57:05.996Z,483.00
2023-03-14T02:57:36.115Z,485.00
2023-03-14T02:58:06.108Z,486.00
2023-03-14T02:58:36.229Z,485.00
2023-03-14T02:59:06.329Z,485.00
2023-03-14T02:59:36.439Z,482.00
2023-03-14T03:00:06.554Z,482.00
2023-03-14T03:00:36.657Z,483.00
2023-03-14T03:01:06.772Z,484.00
2023-03-14T03:01:36.963Z,483.00
2023-03-14T03:02:06.967Z,484.00
2023-03-14T03:02:37.099Z,483.00
2023-03-14T03:03:07.114Z,484.00
2023-03-14T03:03:37.211Z,482.00
2023-03-14T03:04:07.201Z,483.00
2023-03-14T03:04:37.314Z,483.00
2023-03-14T03:05:07.426Z,481.00
2023-03-14T03:05:37.535Z,478.00
2023-03-14T03:06:07.652Z,479.00
2023-03-14T03:06:37.764Z,479.00
2023-03-14T03:07:07.906Z,481.00
2023-03-14T03:07:37.969Z,479.00
2023-03-14T03:08:07.960Z,480.00
2023-03-14T03:08:37.961Z,481.00
2023-03-14T03:09:07.971Z,481.00
2023-03-14T03:09:37.976Z,481.00
2023-03-14T03:10:07.982Z,477.00
2023-03-14T03:10:37.974Z,474.00
2023-03-14T03:11:08.082Z,472.00
2023-03-14T03:11:38.210Z,472.00
2023-03-14T03:12:08.200Z,473.00
2023-03-14T03:12:38.316Z,472.00
2023-03-14T03:13:08.472Z,474.00
2023-03-14T03:13:38.476Z,474.00
2023-03-14T03:14:08.575Z,474.00
2023-03-14T03:14:38.684Z,477.00
2023-03-14T03:15:08.802Z,479.00
2023-03-14T03:15:38.911Z,480.00
2023-03-14T03:16:09.020Z,482.00
2023-03-14T03:16:39.254Z,481.00
2023-03-14T03:17:09.238Z,481.00
2023-03-14T03:17:39.449Z,482.00
2023-03-14T03:18:09.485Z,483.00
2023-03-14T03:18:39.472Z,483.00
2023-03-14T03:19:09.587Z,483.00
2023-03-14T03:19:39.712Z,483.00
2023-03-14T03:20:09.808Z,483.00
2023-03-14T03:20:39.920Z,483.00
2023-03-14T03:21:10.034Z,482.00
2023-03-14T03:21:40.138Z,480.00
2023-03-14T03:22:10.274Z,480.00
2023-03-14T03:22:40.385Z,481.00
2023-03-14T03:23:10.700Z,482.00
2023-03-14T03:23:40.565Z,480.00
2023-03-14T03:24:10.676Z,480.00
2023-03-14T03:24:40.787Z,481.00
2023-03-14T03:25:10.891Z,481.00
2023-03-14T03:25:41.024Z,480.00
2023-03-14T03:26:10.997Z,478.00
2023-03-14T03:26:41.105Z,477.00
2023-03-14T03:27:11.215Z,477.00
2023-03-14T03:27:41.323Z,476.00
2023-03-14T03:28:11.468Z,478.00
2023-03-14T03:28:41.454Z,477.00
2023-03-14T03:29:11.566Z,479.00
2023-03-14T03:29:41.704Z,481.00
2023-03-14T03:30:11.689Z,481.00
2023-03-14T03:30:41.893Z,481.00
2023-03-14T03:31:11.942Z,481.00
2023-03-14T03:31:41.907Z,481.00
2023-03-14T03:32:12.025Z,482.00
2023-03-14T03:32:42.217Z,481.00
2023-03-14T03:33:12.271Z,479.00
2023-03-14T03:33:42.267Z,478.00
2023-03-14T03:34:12.368Z,477.00
2023-03-14T03:34:42.496Z,476.00
2023-03-14T03:35:12.594Z,475.00
2023-03-14T03:35:42.704Z,477.00
2023-03-14T03:36:12.876Z,476.00
2023-03-14T03:36:42.858Z,477.00
2023-03-14T03:37:12.943Z,476.00
2023-03-14T03:37:43.028Z,477.00
2023-03-14T03:38:13.092Z,476.00
2023-03-14T03:38:43.163Z,476.00
2023-03-14T03:39:13.245Z,477.00
2023-03-14T03:39:43.313Z,477.00
2023-03-14T03:40:13.388Z,478.00
2023-03-14T03:40:43.464Z,479.00
2023-03-14T03:41:13.538Z,481.00
2023-03-14T03:41:43.617Z,482.00
2023-03-14T03:42:13.682Z,481.00
2023-03-14T03:42:43.758Z,481.00
2023-03-14T03:43:13.887Z,483.00
2023-03-14T03:43:43.938Z,483.00
2023-03-14T03:44:14.014Z,483.00
2023-03-14T03:44:44.084Z,483.00
2023-03-14T03:45:14.154Z,484.00
2023-03-14T03:45:44.371Z,484.00
2023-03-14T03:46:14.355Z,483.00
2023-03-14T03:46:44.338Z,483.00
2023-03-14T03:47:14.444Z,481.00
2023-03-14T03:47:44.584Z,481.00
2023-03-14T03:48:14.699Z,481.00
2023-03-14T03:48:44.675Z,482.00
2023-03-14T03:49:14.802Z,484.00
2023-03-14T03:49:44.811Z,482.00
2023-03-14T03:50:14.802Z,482.00
2023-03-14T03:50:44.929Z,482.00
2023-03-14T03:51:15.034Z,482.00
2023-03-14T03:51:45.029Z,481.00
2023-03-14T03:52:15.176Z,482.00
2023-03-14T03:52:45.203Z,480.00
2023-03-14T03:53:17.887Z,480.00
2023-03-14T03:53:45.206Z,479.00
2023-03-14T03:54:15.318Z,476.00
2023-03-14T03:54:45.424Z,477.00
2023-03-14T03:55:15.542Z,479.00
2023-03-14T03:55:45.651Z,479.00
2023-03-14T03:56:15.761Z,477.00
2023-03-14T03:56:45.873Z,478.00
2023-03-14T03:57:15.993Z,476.00
2023-03-14T03:57:46.098Z,478.00
2023-03-14T03:58:16.238Z,478.00
2023-03-14T03:58:46.226Z,477.00
2023-03-14T03:59:16.338Z,479.00
2023-03-14T03:59:46.451Z,478.00
2023-03-14T04:00:16.590Z,478.00
2023-03-14T04:00:46.678Z,478.00
2023-03-14T04:01:16.766Z,480.00
2023-03-14T04:01:46.880Z,478.00
2023-03-14T04:02:17.002Z,477.00
2023-03-14T04:02:47.031Z,479.00
2023-03-14T04:03:16.989Z,481.00
2023-03-14T04:03:47.159Z,482.00
2023-03-14T04:04:17.243Z,482.00
2023-03-14T04:04:47.183Z,481.00
2023-03-14T04:05:17.226Z,480.00
2023-03-14T04:05:47.206Z,480.00
2023-03-14T04:06:17.261Z,481.00
2023-03-14T04:06:47.249Z,481.00
2023-03-14T04:07:17.272Z,481.00
2023-03-14T04:07:47.410Z,480.00
2023-03-14T04:08:17.397Z,478.00
2023-03-14T04:08:47.385Z,479.00
2023-03-14T04:09:17.372Z,479.00
2023-03-14T04:09:47.481Z,479.00
2023-03-14T04:10:17.585Z,478.00
2023-03-14T04:10:47.695Z,475.00
2023-03-14T04:11:18.304Z,476.00
2023-03-14T04:11:47.843Z,477.00
2023-03-14T04:12:17.949Z,478.00
2023-03-14T04:12:48.066Z,476.00
2023-03-14T04:13:18.092Z,477.00
2023-03-14T04:13:48.075Z,476.00
2023-03-14T04:14:18.207Z,477.00
2023-03-14T04:14:48.322Z,476.00
2023-03-14T04:15:18.417Z,474.00
2023-03-14T04:15:48.544Z,474.00
2023-03-14T04:16:18.614Z,474.00
2023-03-14T04:16:48.633Z,475.00
2023-03-14T04:17:19.737Z,475.00
2023-03-14T04:17:48.761Z,476.00
2023-03-14T04:18:18.884Z,476.00
2023-03-14T04:18:48.877Z,478.00
2023-03-14T04:19:18.881Z,479.00
2023-03-14T04:19:48.980Z,478.00
2023-03-14T04:20:19.080Z,476.00
2023-03-14T04:20:49.204Z,477.00
2023-03-14T04:21:19.207Z,477.00
2023-03-14T04:21:49.338Z,476.00
2023-03-14T04:22:19.312Z,473.00
2023-03-14T04:22:49.448Z,473.00
2023-03-14T04:23:19.598Z,473.00
2023-03-14T04:23:49.591Z,473.00
2023-03-14T04:24:19.581Z,475.00
2023-03-14T04:24:49.762Z,473.00
2023-03-14T04:25:19.817Z,473.00
2023-03-14T04:25:52.441Z,473.00
2023-03-14T04:26:19.856Z,475.00
2023-03-14T04:26:49.975Z,476.00
2023-03-14T04:27:20.090Z,473.00
2023-03-14T04:27:52.893Z,473.00
2023-03-14T04:28:20.322Z,472.00
2023-03-14T04:28:50.307Z,474.00
2023-03-14T04:29:20.418Z,473.00
2023-03-14T04:29:50.530Z,474.00
2023-03-14T04:30:20.642Z,475.00
2023-03-14T04:30:50.753Z,474.00
2023-03-14T04:31:20.963Z,476.00
2023-03-14T04:31:50.938Z,476.00
2023-03-14T04:32:21.161Z,476.00
2023-03-14T04:32:51.119Z,476.00
2023-03-14T04:33:21.137Z,477.00
2023-03-14T04:33:51.115Z,478.00
2023-03-14T04:34:21.226Z,478.00
2023-03-14T04:34:51.341Z,478.00
2023-03-14T04:35:21.446Z,480.00
2023-03-14T04:35:51.636Z,481.00
2023-03-14T04:36:21.601Z,480.00
2023-03-14T04:36:51.690Z,480.00
2023-03-14T04:37:21.762Z,480.00
2023-03-14T04:37:51.832Z,479.00
2023-03-14T04:38:21.949Z,477.00
2023-03-14T04:38:51.993Z,476.00
2023-03-14T04:39:22.090Z,474.00
2023-03-14T04:39:52.136Z,474.00
2023-03-14T04:40:22.210Z,476.00
2023-03-14T04:40:52.275Z,475.00
2023-03-14T04:41:22.352Z,473.00
2023-03-14T04:41:52.421Z,472.00
2023-03-14T04:42:22.497Z,472.00
2023-03-14T04:42:52.715Z,471.00
2023-03-14T04:43:22.660Z,475.00
2023-03-14T04:43:52.729Z,478.00
2023-03-14T04:44:22.736Z,479.00
2023-03-14T04:44:52.815Z,479.00
2023-03-14T04:45:22.882Z,478.00
2023-03-14T04:45:53.025Z,475.00
2023-03-14T04:46:23.052Z,473.00
2023-03-14T04:46:53.040Z,472.00
2023-03-14T04:47:23.011Z,471.00
2023-03-14T04:47:53.123Z,471.00
2023-03-14T04:48:23.257Z,471.00
2023-03-14T04:48:53.247Z,473.00
2023-03-14T04:49:23.354Z,473.00
2023-03-14T04:49:53.467Z,472.00
2023-03-14T04:50:23.610Z,472.00
2023-03-14T04:50:53.692Z,472.00
2023-03-14T04:51:23.831Z,472.00
2023-03-14T04:51:53.984Z,473.00
2023-03-14T04:52:23.985Z,475.00
2023-03-14T04:52:53.974Z,476.00
2023-03-14T04:53:24.185Z,477.00
2023-03-14T04:53:54.150Z,478.00
2023-03-14T04:54:24.161Z,479.00
2023-03-14T04:54:54.275Z,478.00
2023-03-14T04:55:24.610Z,476.00
2023-03-14T04:55:54.332Z,481.00
2023-03-14T04:56:24.444Z,485.00
2023-03-14T04:56:54.562Z,485.00
2023-03-14T04:57:24.673Z,488.00
2023-03-14T04:57:54.786Z,490.00
2023-03-14T04:58:24.938Z,494.00
2023-03-14T04:58:54.926Z,500.00
2023-03-14T04:59:25.041Z,503.00
2023-03-14T04:59:55.153Z,504.00
2023-03-14T05:00:25.290Z,507.00
2023-03-14T05:00:55.260Z,509.00
2023-03-14T05:01:25.461Z,509.00
2023-03-14T05:01:55.493Z,509.00
2023-03-14T05:02:25.479Z,509.00
2023-03-14T05:02:55.672Z,510.00
2023-03-14T05:03:25.667Z,512.00
2023-03-14T05:03:55.644Z,512.00
2023-03-14T05:04:25.755Z,513.00
2023-03-14T05:04:55.871Z,513.00
2023-03-14T05:05:25.976Z,513.00
2023-03-14T05:05:56.112Z,514.00
2023-03-14T05:06:26.212Z,516.00
2023-03-14T05:06:56.332Z,516.00
2023-03-14T05:07:26.435Z,514.00
2023-03-14T05:07:56.549Z,515.00
2023-03-14T05:08:26.722Z,514.00
2023-03-14T05:08:56.699Z,512.00
2023-03-14T05:09:26.682Z,513.00
2023-03-14T05:09:56.801Z,513.00
2023-03-14T05:10:26.908Z,513.00
2023-03-14T05:10:57.033Z,511.00
2023-03-14T05:11:27.147Z,508.00
2023-03-14T05:11:57.245Z,508.00
2023-03-14T05:12:27.359Z,509.00
2023-03-14T05:12:57.468Z,509.00
2023-03-14T05:13:27.673Z,510.00
2023-03-14T05:13:57.664Z,508.00
2023-03-14T05:14:27.793Z,513.00
2023-03-14T05:14:57.778Z,511.00
2023-03-14T05:15:27.891Z,517.00
2023-03-14T05:15:57.949Z,518.00
2023-03-14T05:16:28.025Z,516.00
2023-03-14T05:16:58.043Z,517.00
2023-03-14T05:17:28.172Z,517.00
2023-03-14T05:17:58.284Z,518.00
2023-03-14T05:18:28.407Z,519.00
2023-03-14T05:18:58.402Z,518.00
2023-03-14T05:19:28.502Z,516.00
2023-03-14T05:19:58.614Z,515.00
2023-03-14T05:20:28.727Z,514.00
2023-03-14T05:20:58.835Z,513.00
2023-03-14T05:21:28.950Z,512.00
2023-03-14T05:21:59.071Z,512.00
2023-03-14T05:22:29.186Z,512.00
2023-03-14T05:22:59.298Z,509.00
2023-03-14T05:23:29.438Z,509.00
2023-03-14T05:23:59.401Z,522.00
2023-03-14T05:24:29.512Z,519.00
2023-03-14T05:24:59.630Z,519.00
2023-03-14T05:25:31.653Z,522.00
2023-03-14T05:25:59.767Z,526.00
2023-03-14T05:26:29.877Z,529.00
2023-03-14T05:27:00.018Z,527.00
2023-03-14T05:27:29.996Z,526.00
2023-03-14T05:28:00.147Z,530.00
2023-03-14T05:28:30.407Z,535.00
2023-03-14T05:29:00.276Z,536.00
2023-03-14T05:29:30.384Z,539.00
2023-03-14T05:30:00.494Z,538.00
2023-03-14T05:30:30.608Z,540.00
2023-03-14T05:31:00.725Z,540.00
2023-03-14T05:31:30.733Z,539.00
2023-03-14T05:32:00.733Z,536.00
2023-03-14T05:32:30.867Z,535.00
2023-03-14T05:33:00.988Z,542.00
2023-03-14T05:33:30.926Z,546.00
2023-03-14T05:34:00.914Z,547.00
2023-03-14T05:34:31.038Z,547.00
2023-03-14T05:35:01.165Z,545.00
2023-03-14T05:35:31.368Z,545.00
2023-03-14T05:36:01.424Z,544.00
2023-03-14T05:36:31.434Z,543.00
2023-03-14T05:37:01.521Z,543.00
2023-03-14T05:37:31.589Z,543.00
2023-03-14T05:38:01.680Z,545.00
2023-03-14T05:38:31.790Z,547.00
2023-03-14T05:39:01.848Z,548.00
2023-03-14T05:39:31.897Z,548.00
2023-03-14T05:40:01.968Z,547.00
2023-03-14T05:40:32.061Z,549.00
2023-03-14T05:41:02.126Z,551.00
2023-03-14T05:41:32.194Z,552.00
2023-03-14T05:42:02.274Z,550.00
2023-03-14T05:42:32.344Z,550.00
2023-03-14T05:43:02.428Z,550.00
2023-03-14T05:43:32.539Z,553.00
2023-03-14T05:44:02.607Z,551.00
2023-03-14T05:44:32.692Z,551.00
2023-03-14T05:45:02.790Z,553.00
2023-03-14T05:45:34.554Z,554.00
2023-03-14T05:46:03.084Z,554.00
2023-03-14T05:46:33.062Z,555.00
2023-03-14T05:47:03.167Z,556.00
2023-03-14T05:47:33.279Z,551.00
2023-03-14T05:48:03.409Z,551.00
2023-03-14T05:48:33.410Z,552.00
2023-03-14T05:49:03.394Z,552.00
2023-03-14T05:49:33.513Z,552.00
2023-03-14T05:50:03.617Z,551.00
2023-03-14T05:50:33.732Z,551.00
2023-03-14T05:51:03.870Z,551.00
2023-03-14T05:51:33.950Z,552.00
2023-03-14T05:52:04.062Z,553.00
2023-03-14T05:52:34.183Z,553.00
2023-03-14T05:53:04.287Z,552.00
2023-03-14T05:53:34.440Z,552.00
2023-03-14T05:54:04.417Z,552.00
2023-03-14T05:54:34.398Z,554.00
2023-03-14T05:55:04.516Z,557.00
2023-03-14T05:55:34.628Z,560.00
2023-03-14T05:56:04.734Z,563.00
2023-03-14T05:56:34.871Z,569.00
2023-03-14T05:57:04.895Z,572.00
2023-03-14T05:57:34.906Z,577.00
2023-03-14T05:58:05.027Z,577.00
2023-03-14T05:58:35.159Z,577.00
2023-03-14T05:59:05.160Z,576.00
2023-03-14T05:59:35.144Z,575.00
2023-03-14T06:00:05.257Z,575.00
2023-03-14T06:00:35.381Z,573.00
2023-03-14T06:01:05.484Z,574.00
2023-03-14T06:01:35.607Z,568.00
2023-03-14T06:02:05.703Z,566.00
2023-03-14T06:02:35.741Z,568.00
2023-03-14T06:03:07.606Z,565.00
2023-03-14T06:03:35.881Z,566.00
2023-03-14T06:04:05.888Z,564.00
2023-03-14T06:04:35.869Z,563.00
2023-03-14T06:05:05.978Z,563.00
2023-03-14T06:05:36.095Z,561.00
2023-03-14T06:06:06.214Z,563.00
2023-03-14T06:06:36.324Z,564.00
2023-03-14T06:07:06.434Z,565.00
2023-03-14T06:07:36.548Z,566.00
2023-03-14T06:08:06.669Z,565.00
2023-03-14T06:08:36.799Z,565.00
2023-03-14T06:09:06.898Z,566.00
2023-03-14T06:09:36.884Z,565.00
2023-03-14T06:10:06.998Z,564.00
2023-03-14T06:10:37.104Z,563.00
2023-03-14T06:11:07.220Z,563.00
2023-03-14T06:11:37.333Z,562.00
2023-03-14T06:12:07.435Z,559.00
2023-03-14T06:12:37.563Z,557.00
2023-03-14T06:13:07.654Z,556.00
2023-03-14T06:13:37.773Z,555.00
2023-03-14T06:14:07.892Z,552.00
2023-03-14T06:14:38.001Z,553.00
2023-03-14T06:15:08.114Z,549.00